createdAt,value
2017-12-03T00:01:33.167Z,84.40
2017-12-03T00:04:38.859Z,83.20
2017-12-03T00:07:44.171Z,83.30
2017-12-03T00:10:49.850Z,82.60
2017-12-03T00:13:55.214Z,82.50
2017-12-03T00:17:00.204Z,83.90
2017-12-03T00:20:06.052Z,82.70
2017-12-03T00:23:11.228Z,83.20
2017-12-03T00:26:16.676Z,83.20
2017-12-03T00:29:22.076Z,83.30
2017-12-03T00:32:27.325Z,84.10
2017-12-03T00:35:34.100Z,83.70
2017-12-03T00:38:39.450Z,84.00
2017-12-03T00:41:44.459Z,83.60
2017-12-03T00:44:49.962Z,84.10
2017-12-03T00:47:56.541Z,83.60
2017-12-03T00:51:02.423Z,83.00
2017-12-03T00:54:07.906Z,82.10
2017-12-03T00:57:13.409Z,81.90
2017-12-03T01:00:19.732Z,83.20
2017-12-03T01:03:25.420Z,83.20
2017-12-03T01:06:30.810Z,84.00
2017-12-03T01:09:36.887Z,83.80
2017-12-03T01:12:42.515Z,82.90
2017-12-03T01:15:47.241Z,83.20
2017-12-03T01:18:52.063Z,83.40
2017-12-03T01:21:57.829Z,83.50
2017-12-03T01:25:03.249Z,83.10
2017-12-03T01:28:09.520Z,83.60
2017-12-03T01:31:16.027Z,83.60
2017-12-03T01:34:21.717Z,83.60
2017-12-03T01:37:27.449Z,83.60
2017-12-03T01:40:32.721Z,83.40
2017-12-03T01:43:38.359Z,85.40
2017-12-03T01:46:44.232Z,83.90
2017-12-03T01:49:50.508Z,83.40
2017-12-03T01:52:55.568Z,83.30
2017-12-03T01:56:01.144Z,82.40
2017-12-03T01:59:06.791Z,81.90
2017-12-03T02:02:12.591Z,78.60
2017-12-03T02:05:20.985Z,79.80
2017-12-03T02:08:26.516Z,81.40
2017-12-03T02:11:32.244Z,81.90
2017-12-03T02:14:37.111Z,81.90
2017-12-03T02:17:42.348Z,83.50
2017-12-03T02:20:48.355Z,80.30
2017-12-03T02:23:53.931Z,80.30
2017-12-03T02:26:59.500Z,81.30
2017-12-03T02:30:04.511Z,81.30
2017-12-03T02:33:10.596Z,82.00
2017-12-03T02:36:16.220Z,81.80
2017-12-03T02:39:21.772Z,81.80
2017-12-03T02:42:27.464Z,82.20
2017-12-03T02:45:32.399Z,82.10
2017-12-03T02:48:38.173Z,80.90
2017-12-03T02:51:44.000Z,81.30
2017-12-03T02:54:48.757Z,81.30
2017-12-03T02:57:54.345Z,80.90
2017-12-03T03:01:00.993Z,82.00
2017-12-03T03:04:06.016Z,80.40
2017-12-03T03:07:11.633Z,81.40
2017-12-03T03:10:16.788Z,80.20
2017-12-03T03:13:22.041Z,80.10
2017-12-03T03:16:26.880Z,80.40
2017-12-03T03:19:31.956Z,79.50
2017-12-03T03:22:36.755Z,80.10
2017-12-03T03:25:42.403Z,79.80
2017-12-03T03:28:48.116Z,80.50
2017-12-03T03:31:53.890Z,78.90
2017-12-03T03:35:02.364Z,80.30
2017-12-03T03:38:07.688Z,79.70
2017-12-03T03:41:13.566Z,78.80
2017-12-03T03:44:19.019Z,79.60
2017-12-03T03:47:25.874Z,77.60
2017-12-03T03:50:32.188Z,77.60
2017-12-03T03:53:40.229Z,75.60
2017-12-03T03:56:45.784Z,75.60
2017-12-03T03:59:51.092Z,76.30
2017-12-03T04:02:56.539Z,77.90
2017-12-03T04:06:02.093Z,77.20
2017-12-03T04:09:08.224Z,76.40
2017-12-03T04:12:13.735Z,76.40
2017-12-03T04:15:18.883Z,77.40
2017-12-03T04:18:24.471Z,80.20
2017-12-03T04:21:30.837Z,81.40
2017-12-03T04:24:35.595Z,82.00
2017-12-03T04:27:40.400Z,76.60
2017-12-03T04:30:52.433Z,74.60
2017-12-03T04:33:57.399Z,74.50
2017-12-03T04:37:02.519Z,78.40
2017-12-03T04:40:08.107Z,80.80
2017-12-03T04:43:13.885Z,82.00
2017-12-03T04:46:19.464Z,80.30
2017-12-03T04:49:24.949Z,81.70
2017-12-03T04:52:29.975Z,80.80
2017-12-03T04:55:35.792Z,79.40
2017-12-03T04:58:41.368Z,79.80
2017-12-03T05:01:47.159Z,82.40
2017-12-03T05:04:52.604Z,82.40
2017-12-03T05:07:58.417Z,81.90
2017-12-03T05:11:03.484Z,82.10
2017-12-03T05:14:10.172Z,82.80
2017-12-03T05:17:14.824Z,83.50
2017-12-03T05:20:19.891Z,83.60
2017-12-03T05:23:25.289Z,82.50
2017-12-03T05:26:30.050Z,82.60
2017-12-03T05:29:35.527Z,83.30
2017-12-03T05:32:41.997Z,82.90
2017-12-03T05:35:47.840Z,84.10
2017-12-03T05:38:53.154Z,84.10
2017-12-03T05:41:58.531Z,83.20
2017-12-03T05:45:04.028Z,83.70
2017-12-03T05:48:10.125Z,81.70
2017-12-03T05:51:15.556Z,82.30
2017-12-03T05:54:21.415Z,81.70
2017-12-03T05:57:26.137Z,81.20
2017-12-03T06:00:31.204Z,80.90
2017-12-03T06:03:36.600Z,83.00
2017-12-03T06:06:42.226Z,84.00
2017-12-03T06:09:47.620Z,81.70
2017-12-03T06:13:00.969Z,81.40
2017-12-03T06:16:05.789Z,82.00
2017-12-03T06:19:11.892Z,81.60
2017-12-03T06:22:17.832Z,82.60
2017-12-03T06:25:22.864Z,81.20
2017-12-03T06:28:28.040Z,80.50
2017-12-03T06:31:33.536Z,81.70
2017-12-03T06:34:39.340Z,81.70
2017-12-03T06:37:44.756Z,82.70
2017-12-03T06:40:50.585Z,83.70
2017-12-03T06:43:56.168Z,80.60
2017-12-03T06:47:03.353Z,82.60
2017-12-03T06:50:08.896Z,81.80
2017-12-03T06:53:15.584Z,83.10
2017-12-03T06:56:21.460Z,82.10
2017-12-03T06:59:28.312Z,81.60
2017-12-03T07:02:33.643Z,82.80
2017-12-03T07:05:39.419Z,83.30
2017-12-03T07:08:44.476Z,83.20
2017-12-03T07:11:49.507Z,82.60
2017-12-03T07:14:54.795Z,82.30
2017-12-03T07:18:00.356Z,80.70
2017-12-03T07:21:05.243Z,80.90
2017-12-03T07:24:10.589Z,82.70
2017-12-03T07:27:16.092Z,80.50
2017-12-03T07:30:22.433Z,79.60
2017-12-03T07:33:27.451Z,80.00
2017-12-03T07:36:33.394Z,79.30
2017-12-03T07:39:39.083Z,80.70
2017-12-03T07:42:44.578Z,79.50
2017-12-03T07:45:50.967Z,80.20
2017-12-03T07:48:56.539Z,80.20
2017-12-03T07:52:03.143Z,80.80
2017-12-03T07:55:08.892Z,81.20
2017-12-03T07:58:15.976Z,79.00
2017-12-03T08:01:21.363Z,79.00
2017-12-03T08:04:28.452Z,80.00
2017-12-03T08:07:34.524Z,78.70
2017-12-03T08:10:39.676Z,78.70
2017-12-03T08:13:45.588Z,79.30
2017-12-03T08:16:50.435Z,78.00
2017-12-03T08:19:59.112Z,79.10
2017-12-03T08:23:04.372Z,80.10
2017-12-03T08:26:09.170Z,79.40
2017-12-03T08:29:14.768Z,79.10
2017-12-03T08:32:20.137Z,78.50
2017-12-03T08:35:25.468Z,78.40
2017-12-03T08:38:30.804Z,78.40
2017-12-03T08:41:36.467Z,78.20
2017-12-03T08:44:42.051Z,78.30
2017-12-03T08:47:47.626Z,79.60
2017-12-03T08:50:52.830Z,79.50
2017-12-03T08:53:57.819Z,78.80
2017-12-03T08:57:03.372Z,79.30
2017-12-03T09:00:08.628Z,78.10
2017-12-03T09:03:17.427Z,77.60
2017-12-03T09:06:22.603Z,78.00
2017-12-03T09:09:28.836Z,74.70
2017-12-03T09:12:34.302Z,74.70
2017-12-03T09:15:39.676Z,75.40
2017-12-03T09:18:45.512Z,74.70
2017-12-03T09:21:50.585Z,74.60
2017-12-03T09:24:55.944Z,74.30
2017-12-03T09:28:00.867Z,74.10
2017-12-03T09:31:06.850Z,73.00
2017-12-03T09:34:12.820Z,73.60
2017-12-03T09:37:18.912Z,74.00
2017-12-03T09:40:25.298Z,72.10
2017-12-03T09:43:31.769Z,71.40
2017-12-03T09:46:40.616Z,71.40
2017-12-03T09:49:46.402Z,72.20
2017-12-03T09:52:51.598Z,72.60
2017-12-03T09:55:56.644Z,73.70
2017-12-03T09:59:01.468Z,73.00
2017-12-03T10:02:07.859Z,73.50
2017-12-03T10:05:13.104Z,73.50
2017-12-03T10:08:18.665Z,73.60
2017-12-03T10:11:25.064Z,72.00
2017-12-03T10:14:30.408Z,72.00
2017-12-03T10:17:35.989Z,71.90
2017-12-03T10:20:42.720Z,73.70
2017-12-03T10:23:47.964Z,74.00
2017-12-03T10:26:53.280Z,75.60
2017-12-03T10:29:58.708Z,74.10
2017-12-03T10:33:04.200Z,74.90
2017-12-03T10:36:09.896Z,75.70
2017-12-03T10:39:14.648Z,76.00
2017-12-03T10:42:19.723Z,76.30
2017-12-03T10:45:24.561Z,74.10
2017-12-03T10:48:29.700Z,73.60
2017-12-03T10:51:34.303Z,73.60
2017-12-03T10:54:40.320Z,72.90
2017-12-03T10:57:45.655Z,72.90
2017-12-03T11:00:50.799Z,73.70
2017-12-03T11:03:56.321Z,75.70
2017-12-03T11:07:01.744Z,78.60
2017-12-03T11:10:07.031Z,78.70
2017-12-03T11:13:12.772Z,78.80
2017-12-03T11:16:17.415Z,79.30
2017-12-03T11:19:23.098Z,78.30
2017-12-03T11:22:28.404Z,77.50
2017-12-03T11:25:34.940Z,78.70
2017-12-03T11:28:39.771Z,77.30
2017-12-03T11:31:46.615Z,77.40
2017-12-03T11:34:52.248Z,77.40
2017-12-03T11:37:58.353Z,78.90
2017-12-03T11:41:03.689Z,79.20
2017-12-03T11:44:09.701Z,80.10
2017-12-03T11:47:16.261Z,80.90
2017-12-03T11:50:21.391Z,81.10
2017-12-03T11:53:27.814Z,83.40
2017-12-03T11:56:33.431Z,85.10
2017-12-03T11:59:39.342Z,85.50
2017-12-03T12:02:44.152Z,85.50
2017-12-03T12:05:50.580Z,85.10
2017-12-03T12:08:55.956Z,85.80
2017-12-03T12:12:01.218Z,86.60
2017-12-03T12:15:06.457Z,84.70
2017-12-03T12:18:11.524Z,87.10
2017-12-03T12:21:16.524Z,84.90
2017-12-03T12:24:23.042Z,85.90
2017-12-03T12:27:29.015Z,84.90
2017-12-03T12:30:39.488Z,85.20
2017-12-03T12:33:45.251Z,84.00
2017-12-03T12:36:51.634Z,84.80
2017-12-03T12:40:06.460Z,87.70
2017-12-03T12:43:12.071Z,87.70
2017-12-03T12:46:18.850Z,88.60
2017-12-03T12:49:24.200Z,88.60
2017-12-03T12:52:30.264Z,90.40
2017-12-03T12:55:35.476Z,90.10
2017-12-03T12:58:42.123Z,90.30
2017-12-03T13:01:47.207Z,90.00
2017-12-03T13:04:53.737Z,90.40
2017-12-03T13:07:59.048Z,90.30
2017-12-03T13:11:05.084Z,89.40
2017-12-03T13:14:10.536Z,89.70
2017-12-03T13:17:15.864Z,91.30
2017-12-03T13:20:21.803Z,91.30
2017-12-03T13:23:27.045Z,90.80
2017-12-03T13:26:31.991Z,90.70
2017-12-03T13:29:36.832Z,90.70
2017-12-03T13:32:43.220Z,90.70
2017-12-03T13:35:49.016Z,90.70
2017-12-03T13:38:54.129Z,91.20
2017-12-03T13:42:00.740Z,91.00
2017-12-03T13:45:06.545Z,90.70
2017-12-03T13:48:11.945Z,90.70
2017-12-03T13:51:17.029Z,90.80
2017-12-03T13:54:22.071Z,90.70
2017-12-03T13:57:27.535Z,90.60
2017-12-03T14:00:33.775Z,90.80
2017-12-03T14:03:38.532Z,90.80
2017-12-03T14:06:45.096Z,91.00
2017-12-03T14:09:51.567Z,91.00
2017-12-03T14:12:56.604Z,91.00
2017-12-03T14:16:02.257Z,91.30
2017-12-03T14:19:07.977Z,91.20
2017-12-03T14:22:13.187Z,91.30
2017-12-03T14:25:18.940Z,91.30
2017-12-03T14:28:24.100Z,91.40
2017-12-03T14:31:29.584Z,91.80
2017-12-03T14:34:35.221Z,91.90
2017-12-03T14:37:40.708Z,91.90
2017-12-03T14:40:45.976Z,91.60
2017-12-03T14:43:50.790Z,91.30
2017-12-03T14:46:55.941Z,91.80
2017-12-03T14:50:01.972Z,91.40
2017-12-03T14:53:07.380Z,91.60
2017-12-03T14:56:12.126Z,91.30
2017-12-03T14:59:17.025Z,91.50
2017-12-03T15:02:22.673Z,91.60
2017-12-03T15:05:28.812Z,91.70
2017-12-03T15:08:34.126Z,91.70
2017-12-03T15:11:41.855Z,92.10
2017-12-03T15:14:52.480Z,91.80
2017-12-03T15:18:03.432Z,91.80
2017-12-03T15:21:11.088Z,92.00
2017-12-03T15:24:15.714Z,92.00
2017-12-03T15:27:20.600Z,92.00
2017-12-03T15:30:26.345Z,92.00
2017-12-03T15:33:31.635Z,92.00
2017-12-03T15:36:38.755Z,92.30
2017-12-03T15:39:44.062Z,92.30
2017-12-03T15:42:57.330Z,92.30
2017-12-03T15:46:02.391Z,92.30
2017-12-03T15:49:07.727Z,92.40
2017-12-03T15:52:13.701Z,92.40
2017-12-03T15:55:19.136Z,92.30
2017-12-03T15:58:24.920Z,92.30
2017-12-03T16:01:30.871Z,92.50
2017-12-03T16:04:36.721Z,92.50
2017-12-03T16:07:46.564Z,92.50
2017-12-03T16:10:52.559Z,92.40
2017-12-03T16:13:59.148Z,92.50
2017-12-03T16:17:04.487Z,92.50
2017-12-03T16:20:10.966Z,92.50
2017-12-03T16:23:18.812Z,92.60
2017-12-03T16:26:24.591Z,92.60
2017-12-03T16:29:33.203Z,92.90
2017-12-03T16:32:38.739Z,93.00
2017-12-03T16:35:43.516Z,93.00
2017-12-03T16:38:50.519Z,93.30
2017-12-03T16:41:55.571Z,93.00
2017-12-03T16:45:00.653Z,93.00
2017-12-03T16:48:12.024Z,93.10
2017-12-03T16:51:18.051Z,93.10
2017-12-03T16:54:22.857Z,93.10
2017-12-03T16:57:28.380Z,92.90
2017-12-03T17:00:34.158Z,92.90
2017-12-03T17:03:40.227Z,92.60
2017-12-03T17:06:45.477Z,92.60
2017-12-03T17:09:51.653Z,92.30
2017-12-03T17:12:57.645Z,92.60
2017-12-03T17:16:03.583Z,92.50
2017-12-03T17:19:09.200Z,92.50
2017-12-03T17:22:15.692Z,92.40
2017-12-03T17:25:21.238Z,92.70
2017-12-03T17:28:33.227Z,92.40
2017-12-03T17:31:39.173Z,92.50
2017-12-03T17:34:45.753Z,92.50
2017-12-03T17:37:50.763Z,92.50
2017-12-03T17:40:56.741Z,92.30
2017-12-03T17:44:02.072Z,92.30
2017-12-03T17:47:07.281Z,92.00
2017-12-03T17:50:12.600Z,92.10
2017-12-03T17:53:25.698Z,92.30
2017-12-03T17:56:31.900Z,92.30
2017-12-03T17:59:37.170Z,92.30
2017-12-03T18:02:47.299Z,92.30
2017-12-03T18:06:02.980Z,92.50
2017-12-03T18:09:10.620Z,92.90
2017-12-03T18:12:16.815Z,92.80
2017-12-03T18:15:22.992Z,92.70
2017-12-03T18:18:28.564Z,93.00
2017-12-03T18:21:34.005Z,92.90
2017-12-03T18:24:41.876Z,92.80
2017-12-03T18:27:48.325Z,92.80
2017-12-03T18:30:54.691Z,92.80
2017-12-03T18:34:00.360Z,92.90
2017-12-03T18:37:05.915Z,93.00
2017-12-03T18:40:16.840Z,93.00
2017-12-03T18:43:23.423Z,93.40
2017-12-03T18:46:29.264Z,93.50
2017-12-03T18:49:34.532Z,93.50
2017-12-03T18:52:40.857Z,93.80
2017-12-03T18:55:45.886Z,93.90
2017-12-03T18:58:51.514Z,93.80
2017-12-03T19:02:03.093Z,93.90
2017-12-03T19:05:09.484Z,93.80
2017-12-03T19:08:16.188Z,93.80
2017-12-03T19:11:22.277Z,93.80
2017-12-03T19:14:29.233Z,93.80
2017-12-03T19:17:34.557Z,93.90
2017-12-03T19:20:40.826Z,93.80
2017-12-03T19:23:48.250Z,93.80
2017-12-03T19:26:54.504Z,94.00
2017-12-03T19:29:59.535Z,93.90
2017-12-03T19:33:06.180Z,93.90
2017-12-03T19:36:11.882Z,94.00
2017-12-03T19:39:17.592Z,94.20
2017-12-03T19:42:22.548Z,94.20
2017-12-03T19:45:31.624Z,94.20
2017-12-03T19:48:37.067Z,94.30
2017-12-03T19:51:43.579Z,94.10
2017-12-03T19:54:49.338Z,94.30
2017-12-03T19:57:54.281Z,94.20
2017-12-03T20:00:59.939Z,94.40
2017-12-03T20:04:05.367Z,94.70
2017-12-03T20:07:11.526Z,94.90
2017-12-03T20:10:16.695Z,94.90
2017-12-03T20:13:22.855Z,94.70
2017-12-03T20:16:28.664Z,94.80
2017-12-03T20:19:34.903Z,94.50
2017-12-03T20:22:40.269Z,94.40
2017-12-03T20:25:46.203Z,94.40
2017-12-03T20:28:52.196Z,94.30
2017-12-03T20:31:58.003Z,94.30
2017-12-03T20:35:04.456Z,94.20
2017-12-03T20:38:09.590Z,94.10
2017-12-03T20:41:15.676Z,94.20
2017-12-03T20:44:20.944Z,94.20
2017-12-03T20:47:25.780Z,94.20
2017-12-03T20:50:31.482Z,94.00
2017-12-03T20:53:36.684Z,94.00
2017-12-03T20:56:42.345Z,94.00
2017-12-03T20:59:47.188Z,93.90
2017-12-03T21:02:57.981Z,93.70
2017-12-03T21:06:03.559Z,93.70
2017-12-03T21:09:09.786Z,93.80
2017-12-03T21:12:15.423Z,93.80
2017-12-03T21:15:20.768Z,93.60
2017-12-03T21:18:26.576Z,93.50
2017-12-03T21:21:32.246Z,93.40
2017-12-03T21:24:38.074Z,93.30
2017-12-03T21:27:43.581Z,93.20
2017-12-03T21:30:50.083Z,93.20
2017-12-03T21:33:55.268Z,93.20
2017-12-03T21:37:00.564Z,93.40
2017-12-03T21:40:05.827Z,93.20
2017-12-03T21:43:11.193Z,93.30
2017-12-03T21:46:16.083Z,93.20
2017-12-03T21:49:21.476Z,93.30
2017-12-03T21:52:26.826Z,93.30
2017-12-03T21:55:32.108Z,93.50
2017-12-03T21:58:38.044Z,93.40
2017-12-03T22:01:43.184Z,93.30
2017-12-03T22:04:49.917Z,93.00
2017-12-03T22:07:58.539Z,93.00
2017-12-03T22:11:04.060Z,93.00
2017-12-03T22:14:09.607Z,93.10
2017-12-03T22:17:14.527Z,92.90
2017-12-03T22:20:20.372Z,93.10
2017-12-03T22:23:25.220Z,93.10
2017-12-03T22:26:30.828Z,93.00
2017-12-03T22:29:36.074Z,93.10
2017-12-03T22:32:41.124Z,93.10
2017-12-03T22:35:46.867Z,93.20
2017-12-03T22:38:52.619Z,93.20
2017-12-03T22:41:58.164Z,93.40
2017-12-03T22:45:05.132Z,93.30
2017-12-03T22:48:10.584Z,93.20
2017-12-03T22:51:17.092Z,93.30
2017-12-03T22:54:22.570Z,93.40
2017-12-03T22:57:30.144Z,93.50
2017-12-03T23:00:41.111Z,93.50
2017-12-03T23:03:47.510Z,93.20
2017-12-03T23:06:52.914Z,93.20
2017-12-03T23:09:58.096Z,93.10
2017-12-03T23:13:03.761Z,93.40
2017-12-03T23:16:08.707Z,93.40
2017-12-03T23:19:14.012Z,93.20
2017-12-03T23:22:19.620Z,93.70
2017-12-03T23:25:25.981Z,93.50
2017-12-03T23:28:31.536Z,93.40
2017-12-03T23:31:37.140Z,93.50
2017-12-03T23:34:42.096Z,93.40
2017-12-03T23:37:49.200Z,93.40
2017-12-03T23:40:54.444Z,93.20
2017-12-03T23:43:59.901Z,93.20
2017-12-03T23:47:04.715Z,93.20
2017-12-03T23:50:09.564Z,93.20
2017-12-03T23:53:14.897Z,93.10
2017-12-03T23:56:20.157Z,93.30
2017-12-03T23:59:25.205Z,93.30
